Tiempo atmosférico en la estación meteorológica de Pontons, Barcelona (630 m.)



Fecha
DESCASC
Temp. máxima en grados centígrados (hora)
DESCASC
Temp. mínima en grados centígrados (hora)
DESCASC
Temp. media en grados centígrados
DESCASC
Racha de viento máxima en m/sg (hora)
DESCASC
Velocidad máxima media en intervalos de 10 minutos(hora)
DESCASC
Precipitaciones diarias en mm
DESCASC
Precipitaciones de 00:00 a 06:00 en mm
DESCASC
Precipitaciones de 06:00 a 12:00 en mm
DESCASC
Precipitaciones de 12:00 a 18:00 en mm
DESCASC
Precipitaciones de 18:00 a 24:00 en mm
DESCASC
29-10-2020 19.6 (14:30) 6.2 (04:40) 12.9 8.61 (10:20) 5.83 (11:50) 0 0 0 0 0
28-10-2020 17.6 (16:50) 7.2 (23:50) 12.4 11.39 (00:10) 7.5 (00:30) 0 0 0 0 0
27-10-2020 15.1 (14:40) 7.8 (00:00) 11.5 18.61 (04:00) 11.94 (04:00) 0 0 0 0 0
26-10-2020 14.2 (16:20) 7.4 (00:00) 10.8 18.61 (01:30) 13.33 (01:30) 0 0 0 0 0
25-10-2020 18 (15:30) 9.3 (00:00) 13.7 15.28 (09:40) 10.28 (09:40) 0 0 0 0 0
24-10-2020 17.9 (15:00) 8.4 (00:00) 13.1 11.11 (02:30) 7.22 (12:00) 0 0 0 0 0
23-10-2020 18.2 (17:10) 11.2 (00:00) 14.7 13.06 (16:20) 8.89 (16:30) 2.2 2 0.2 0 0
22-10-2020 17.2 (14:30) 12.3 (00:00) 14.8 5.83 (11:00) 3.89 (11:00) 1.6 0 0.2 0.8 0.6
21-10-2020 23 (15:50) 13 (00:00) 18 9.72 (00:10) 5.28 (00:10) 0 0 0 0 0
20-10-2020 16.4 (13:40) 13.2 (00:00) 14.8 9.17 (21:20) 5.83 (21:20) 0 0 0 0 0
19-10-2020 16.8 (16:10) 8.1 (00:00) 12.4 -- (--) -- (--) 0 0 0 0 0
18-10-2020 18.5 (16:20) 3.3 (00:00) 10.9 6.67 (15:40) 4.44 (15:30) 0 0 0 0 0
17-10-2020 17.2 (15:30) 3.3 (00:00) 10.3 6.67 (12:20) 4.17 (12:00) 0 0 0 0 0
16-10-2020 16.6 (16:40) 3.1 (00:00) 9.9 9.17 (04:10) 6.11 (06:00) 0 0 0 0 0
15-10-2020 15.3 (15:30) 4.5 (00:00) 9.9 12.22 (09:50) 8.33 (14:20) 0 0 0 0 0
14-10-2020 14.9 (15:50) 6.7 (00:00) 10.8 13.89 (20:50) 8.89 (20:00) 3 3 0 0 0
13-10-2020 18.5 (15:10) 7.6 (00:00) 13 13.06 (16:30) 8.33 (17:30) 0 0 0 0 0
12-10-2020 17.5 (16:40) 6.6 (00:00) 12 13.89 (14:00) 9.17 (15:10) 0 0 0 0 0
11-10-2020 17.4 (16:40) 7 (00:00) 12.2 13.89 (15:20) 8.61 (15:40) 0 0 0 0 0
10-10-2020 21 (14:50) 11.2 (00:00) 16.1 6.11 (12:20) 4.17 (17:10) 0 0 0 0 0
09-10-2020 22 (15:10) 14.3 (00:00) 18.2 7.78 (16:00) 5.56 (16:00) 0 0 0 0 0
08-10-2020 22 (15:40) 11.3 (00:00) 16.7 8.33 (11:30) 5.28 (16:30) 0 0 0 0 0
07-10-2020 22.9 (16:00) 14.8 (00:00) 18.8 21.11 (08:50) 11.94 (08:40) 0 0 0 0 0
06-10-2020 21.6 (16:40) 7.4 (00:00) 14.5 16.39 (22:30) 11.11 (22:20) 0 0 0 0 0
05-10-2020 17.8 (16:50) 9.6 (00:00) 13.7 18.89 (01:00) 12.22 (01:00) 0 0 0 0 0
04-10-2020 15.7 (16:30) 6.8 (00:00) 11.3 17.5 (22:40) 12.5 (19:40) 0 0 0 0 0
03-10-2020 13.9 (17:50) 7.4 (00:00) 10.6 22.5 (11:10) 15.28 (10:20) 0 0 0 0 0
02-10-2020 15.5 (00:00) 7.7 (00:00) 11.6 23.61 (15:30) 14.72 (15:40) 8.2 0 4 4.2 0
01-10-2020 24.1 (15:50) 12.8 (00:00) 18.5 11.11 (12:20) 8.06 (12:30) 0 0 0 0 0

Gráficas

Temp. máximas Temp. mínimas Temp. medias Precipitaciones Rachas de viento máximas Velocidades máximas media en intervalos de 10 minutos

Datos horarios

Fecha y hora oficial Temperatura (ºC) Velocidad del viento (km/h) Dirección del viento Racha (km/h) Dirección de racha Precipitación (mm) Presión (hPa) Tendencia (hPa) Humedad (%)
2020-10-30 23:00:00 8.9 9 Noroeste 13 Noroeste 0 -- -- 75
2020-10-30 22:00:00 10.2 12 Noroeste 15 Noroeste 0 -- -- 62
2020-10-30 21:00:00 9 10 Noroeste 13 Noroeste 0 -- -- 61
2020-10-30 20:00:00 10.7 11 Noroeste 14 Noroeste 0 -- -- 70
2020-10-30 19:00:00 12.1 10 Noroeste 12 Noroeste 0 -- -- 72
2020-10-30 18:00:00 15.5 5 Noroeste 10 Sudoeste 0 -- -- 65
2020-10-30 17:00:00 20.8 7 Sudeste 12 Sudeste 0 -- -- 49
2020-10-30 16:00:00 22.9 7 Sudeste 15 Sudeste 0 -- -- 43
2020-10-30 15:00:00 23.4 9 Sudeste 17 Sudeste 0 -- -- 38
2020-10-30 14:00:00 22.9 9 Sudeste 17 Oeste 0 -- -- 36
2020-10-30 13:00:00 22.1 8 Noroeste 18 Noroeste 0 -- -- 26
2020-10-30 12:00:00 20.5 10 Oeste 19 Oeste 0 -- -- 39
2020-10-30 11:00:00 18.8 12 Noroeste 18 Noroeste 0 -- -- 44
2020-10-30 10:00:00 16.7 9 Noroeste 25 Noroeste 0 -- -- 52
2020-10-30 09:00:00 14.9 19 Noroeste 26 Oeste 0 -- -- 57
2020-10-30 08:00:00 12.7 9 Noroeste 20 Oeste 0 -- -- 65
2020-10-30 07:00:00 12.2 10 Oeste 23 Oeste 0 -- -- 65
2020-10-30 06:00:00 12.9 14 Oeste 28 Oeste 0 -- -- 63
2020-10-30 05:00:00 12.9 15 Noroeste 27 Oeste 0 -- -- 64
2020-10-30 04:00:00 8.1 9 Noroeste 12 Noroeste 0 -- -- 84
2020-10-30 03:00:00 9.8 7 Noroeste 12 Noroeste 0 -- -- 76
2020-10-30 02:00:00 9.1 8 Noroeste 13 Noroeste 0 -- -- 80
2020-10-30 01:00:00 8.9 9 Noroeste 13 Noroeste 0 -- -- 84
2020-10-30 00:00:00 8 7 Noroeste 10 Noroeste 0 -- -- 87
2020-10-29 23:00:00 9.1 5 Noroeste 12 Noroeste 0 -- -- 85
2020-10-29 22:00:00 8.7 7 Noroeste 12 Noroeste 0 -- -- 81
2020-10-29 21:00:00 9.7 5 Noroeste 12 Noroeste 0 -- -- 83
2020-10-29 20:00:00 10.5 7 Noroeste 9 Noroeste 0 -- -- 84
2020-10-29 19:00:00 12.1 6 Noroeste 12 Noroeste 0 -- -- 75
2020-10-29 18:00:00 14.8 8 Noroeste 15 Oeste 0 -- -- 66
2020-10-29 17:00:00 17.8 12 Oeste 20 Oeste 0 -- -- 57
2020-10-29 16:00:00 18.8 13 Sudoeste 24 Oeste 0 -- -- 55
2020-10-29 15:00:00 19.3 15 Oeste 30 Sudoeste 0 -- -- 44
2020-10-29 14:00:00 18.9 16 Noroeste 26 Noroeste 0 -- -- 45
2020-10-29 13:00:00 18 16 Oeste 31 Noroeste 0 -- -- 47
2020-10-29 12:00:00 17.2 15 Noroeste 31 Oeste 0 -- -- 50
2020-10-29 11:00:00 16.1 13 Oeste 31 Noroeste 0 -- -- 53
2020-10-29 10:00:00 14.9 13 Oeste 24 Oeste 0 -- -- 57
2020-10-29 09:00:00 13 14 Oeste 25 Oeste 0 -- -- 67
2020-10-29 08:00:00 8.2 7 Noroeste 9 Noroeste 0 -- -- 89
2020-10-29 07:00:00 7.3 5 Noroeste 9 Noroeste 0 -- -- 88
2020-10-29 06:00:00 6.4 4 Noroeste 9 Noroeste 0 -- -- 87
2020-10-29 05:00:00 6.5 7 Noroeste 10 Noroeste 0 -- -- 89
2020-10-29 04:00:00 7 9 Noroeste 11 Noroeste 0 -- -- 87
2020-10-29 03:00:00 7.1 9 Noroeste 11 Noroeste 0 -- -- 87
2020-10-29 02:00:00 6.8 8 Noroeste 10 Noroeste 0 -- -- 86
2020-10-29 01:00:00 7.2 8 Noroeste 11 Noroeste 0 -- -- 85
2020-10-29 00:00:00 7.6 8 Noroeste 10 Noroeste 0 -- -- 85
2020-10-28 23:00:00 8.2 5 Noroeste 12 Noroeste 0 -- -- 82
2020-10-28 22:00:00 8.7 8 Noroeste 11 Noroeste 0 -- -- 78
2020-10-28 21:00:00 9.8 7 Noroeste 11 Noroeste 0 -- -- 74
2020-10-28 20:00:00 9.7 5 Noroeste 9 Noroeste 0 -- -- 73
2020-10-28 19:00:00 12.3 7 Noroeste 10 Noroeste 0 -- -- 63
2020-10-28 18:00:00 14.2 5 Noroeste 21 Oeste 0 -- -- 58
2020-10-28 17:00:00 17.5 12 Noroeste 26 Oeste 0 -- -- 47
2020-10-28 16:00:00 17 14 Oeste 28 Oeste 0 -- -- 48
2020-10-28 15:00:00 17.3 17 Noroeste 33 Noroeste 0 -- -- 47
2020-10-28 14:00:00 16.8 25 Noroeste 38 Noroeste 0 -- -- 47
2020-10-28 13:00:00 17.1 25 Noroeste 39 Noroeste 0 -- -- 46
2020-10-28 12:00:00 16.2 18 Noroeste 32 Noroeste 0 -- -- 49
2020-10-28 11:00:00 15.6 14 Noroeste 30 Oeste 0 -- -- 52
2020-10-28 10:00:00 13.9 15 Noroeste 26 Noroeste 0 -- -- 56
2020-10-28 09:00:00 11.6 15 Noroeste 24 Oeste 0 -- -- 60
2020-10-28 08:00:00 10.6 12 Oeste 18 Oeste 0 -- -- 63
2020-10-28 07:00:00 9.5 5 Noroeste 15 Noroeste 0 -- -- 64
2020-10-28 06:00:00 11 13 Noroeste 19 Oeste 0 -- -- 60
2020-10-28 05:00:00 11.1 11 Noroeste 19 Noroeste 0 -- -- 58
2020-10-28 04:00:00 11 9 Noroeste 37 Oeste 0 -- -- 57
2020-10-28 03:00:00 11.4 18 Oeste 32 Noroeste 0 -- -- 55
2020-10-28 02:00:00 11.1 15 Noroeste 29 Oeste 0 -- -- 54
2020-10-28 01:00:00 11.5 6 Noroeste 41 Oeste 0 -- -- 52
2020-10-28 00:00:00 11.7 27 Oeste 41 Oeste 0 -- -- 50
2020-10-27 23:00:00 11.4 20 Oeste 33 Oeste 0 -- -- 51
2020-10-27 22:00:00 10.4 19 Noroeste 31 Oeste 0 -- -- 53
2020-10-27 21:00:00 10.6 23 Oeste 30 Noroeste 0 -- -- 53
2020-10-27 20:00:00 10.5 12 Noroeste 21 Noroeste 0 -- -- 52
2020-10-27 19:00:00 10.7 12 Noroeste 31 Noroeste 0 -- -- 52
2020-10-27 18:00:00 12.4 23 Noroeste 32 Noroeste 0 -- -- 46
2020-10-27 17:00:00 14 18 Oeste 39 Noroeste 0 -- -- 43
2020-10-27 16:00:00 14 24 Oeste 42 Noroeste 0 -- -- 41
2020-10-27 15:00:00 14.6 21 Noroeste 35 Noroeste 0 -- -- 40
2020-10-27 14:00:00 13.7 15 Noroeste 32 Oeste 0 -- -- 44
2020-10-27 13:00:00 11 19 Noroeste 47 Noroeste 0 -- -- 53
2020-10-27 12:00:00 9.9 28 Noroeste 46 Noroeste 0 -- -- 57
2020-10-27 11:00:00 11.1 25 Oeste 52 Noroeste 0 -- -- 53
2020-10-27 10:00:00 9.8 30 Noroeste 46 Noroeste 0 -- -- 59
2020-10-27 09:00:00 8.9 26 Noroeste 47 Noroeste 0 -- -- 61
2020-10-27 08:00:00 7.9 33 Noroeste 53 Noroeste 0 -- -- 65
2020-10-27 07:00:00 8.1 35 Noroeste 53 Noroeste 0 -- -- 64
2020-10-27 06:00:00 8.3 31 Noroeste 59 Noroeste 0 -- -- 62
2020-10-27 05:00:00 8.5 40 Noroeste 60 Noroeste 0 -- -- 61
2020-10-27 04:00:00 8.7 43 Noroeste 67 Noroeste 0 -- -- 58
2020-10-27 03:00:00 8.5 32 Noroeste 52 Noroeste 0 -- -- 58
2020-10-27 02:00:00 8.9 24 Noroeste 47 Noroeste 0 -- -- 54
2020-10-27 01:00:00 8.1 25 Noroeste 37 Noroeste 0 -- -- 55
2020-10-27 00:00:00 8.3 23 Noroeste 37 Noroeste 0 -- -- 55
2020-10-26 23:00:00 8.3 16 Noroeste 35 Noroeste 0 -- -- 56
2020-10-26 22:00:00 8.4 17 Noroeste 49 Noroeste 0 -- -- 57
2020-10-26 21:00:00 8.8 28 Noroeste 48 Oeste 0 -- -- 58
2020-10-26 20:00:00 9.6 30 Oeste 44 Noroeste 0 -- -- 57
2020-10-26 19:00:00 10.1 31 Oeste 50 Noroeste 0 -- -- 52
2020-10-26 18:00:00 10.4 31 Noroeste 55 Oeste 0 -- -- 51
2020-10-26 17:00:00 12.6 29 Noroeste 49 Noroeste 0 -- -- 45
2020-10-26 16:00:00 13.7 29 Noroeste 47 Oeste 0 -- -- 43
2020-10-26 15:00:00 13.5 31 Noroeste 54 Noroeste 0 -- -- 46
2020-10-26 14:00:00 13.2 23 Noroeste 57 Noroeste 0 -- -- 46
2020-10-26 13:00:00 12.5 37 Noroeste 55 Noroeste 0 -- -- 49
2020-10-26 12:00:00 10.8 36 Noroeste 60 Noroeste 0 -- -- 54
2020-10-26 11:00:00 10.1 31 Noroeste 62 Noroeste 0 -- -- 57
2020-10-26 10:00:00 8.8 23 Noroeste 62 Noroeste 0 -- -- 63
2020-10-26 09:00:00 8.2 32 Noroeste 64 Noroeste 0 -- -- 62
2020-10-26 08:00:00 7.4 42 Noroeste 64 Noroeste 0 -- -- 64
2020-10-26 07:00:00 8.2 32 Oeste 59 Noroeste 0 -- -- 59
2020-10-26 06:00:00 9.6 26 Oeste 51 Noroeste 0 -- -- 56
2020-10-26 05:00:00 10.2 28 Noroeste 49 Noroeste 0 -- -- 64
2020-10-26 04:00:00 10.3 25 Noroeste 48 Noroeste 0 -- -- 76
2020-10-26 03:00:00 10.7 23 Noroeste 50 Noroeste 0 -- -- 72
2020-10-26 02:00:00 11.5 35 Noroeste 67 Noroeste 0 -- -- 69
2020-10-26 01:00:00 12.6 39 Oeste 62 Oeste 0 -- -- 69
2020-10-26 00:00:00 11.4 8 Noroeste 11 Noroeste 0 -- -- 65
2020-10-25 23:00:00 9.5 7 Noroeste 9 Noroeste 0 -- -- 71
2020-10-25 22:00:00 10.2 6 Noroeste 12 Noroeste 0 -- -- 70
2020-10-25 21:00:00 10.3 8 Noroeste 10 Noroeste 0 -- -- 73
2020-10-25 20:00:00 10.8 8 Noroeste 15 Noroeste 0 -- -- 74
2020-10-25 19:00:00 11.4 9 Noroeste 15 Oeste 0 -- -- 68
2020-10-25 18:00:00 13.5 10 Oeste 19 Oeste 0 -- -- 59
2020-10-25 17:00:00 15.8 11 Sudoeste 25 Noroeste 0 -- -- 51
2020-10-25 16:00:00 17.1 19 Oeste 44 Oeste 0 -- -- 41
2020-10-25 15:00:00 17.7 31 Noroeste 54 Noroeste 0 -- -- 39
2020-10-25 14:00:00 16.6 28 Noroeste 48 Noroeste 0 -- -- 44
2020-10-25 13:00:00 16.3 26 Noroeste 46 Noroeste 0 -- -- 47
2020-10-25 12:00:00 15.1 28 Noroeste 53 Noroeste 0 -- -- 50
2020-10-25 11:00:00 14.7 22 Oeste 44 Oeste 0 -- -- 51
2020-10-25 10:00:00 13.3 22 Oeste 55 Noroeste 0 -- -- 56
2020-10-25 09:00:00 12.6 26 Oeste 47 Noroeste 0 -- -- 57
2020-10-25 08:00:00 12.5 25 Oeste 53 Oeste 0 -- -- 57
2020-10-25 07:00:00 12 31 Oeste 46 Oeste 0 -- -- 60
2020-10-25 06:00:00 11.9 31 Oeste 46 Oeste 0 -- -- 60
2020-10-25 05:00:00 11.7 26 Oeste 43 Oeste 0 -- -- 61
2020-10-25 04:00:00 11.5 22 Oeste 39 Oeste 0 -- -- 62
2020-10-25 03:00:00 11.3 19 Noroeste 37 Oeste 0 -- -- 61
2020-10-25 02:00:00 12.1 22 Oeste 33 Oeste 0 -- -- 57
2020-10-25 01:00:00 10.6 10 Noroeste 17 Oeste 0 -- -- 61
2020-10-25 00:00:00 10.1 10 Noroeste 14 Noroeste 0 -- -- 65
2020-10-24 23:00:00 8.4 10 Noroeste 18 Oeste 0 -- -- 80
2020-10-24 22:00:00 9.6 12 Oeste 15 Oeste 0 -- -- 77
2020-10-24 21:00:00 9.3 11 Noroeste 18 Oeste 0 -- -- 75
2020-10-24 20:00:00 10.6 10 Oeste 19 Oeste 0 -- -- 71
2020-10-24 19:00:00 13.4 12 Oeste 24 Oeste 0 -- -- 61
2020-10-24 18:00:00 16.1 14 Oeste 31 Oeste 0 -- -- 39
2020-10-24 17:00:00 16.8 23 Oeste 39 Oeste 0 -- -- 37
2020-10-24 16:00:00 17.3 21 Oeste 32 Oeste 0 -- -- 38
2020-10-24 15:00:00 17.9 12 Noroeste 32 Noroeste 0 -- -- 40
2020-10-24 14:00:00 16.9 19 Oeste 31 Oeste 0 -- -- 43
2020-10-24 13:00:00 16.1 16 Oeste 33 Oeste 0 -- -- 47
2020-10-24 12:00:00 14.5 26 Noroeste 40 Noroeste 0 -- -- 51
2020-10-24 11:00:00 13.7 15 Oeste 33 Oeste 0 -- -- 55
2020-10-24 10:00:00 12 17 Oeste 33 Oeste 0 -- -- 59
2020-10-24 09:00:00 10.7 17 Oeste 35 Noroeste 0 -- -- 64
2020-10-24 08:00:00 10.1 18 Oeste 30 Oeste 0 -- -- 66
2020-10-24 07:00:00 10.2 14 Oeste 28 Noroeste 0 -- -- 65
2020-10-24 06:00:00 10.4 14 Oeste 20 Sudoeste 0 -- -- 63
2020-10-24 05:00:00 10.8 13 Oeste 30 Noroeste 0 -- -- 61
2020-10-24 04:00:00 11.4 14 Oeste 38 Noroeste 0 -- -- 55
2020-10-24 03:00:00 12 22 Noroeste 40 Noroeste 0 -- -- 52
2020-10-24 02:00:00 12 23 Noroeste 37 Noroeste 0 -- -- 56
2020-10-24 01:00:00 11.9 19 Noroeste 29 Oeste 0 -- -- 58
2020-10-24 00:00:00 12.2 19 Noroeste 27 Noroeste 0 -- -- 54
2020-10-23 23:00:00 11.7 11 Noroeste 21 Noroeste 0 -- -- 56
2020-10-23 22:00:00 12.1 10 Noroeste 18 Oeste 0 -- -- 55
2020-10-23 21:00:00 12.6 14 Noroeste 24 Noroeste 0 -- -- 54
2020-10-23 20:00:00 13.6 17 Noroeste 31 Noroeste 0 -- -- 49
2020-10-23 19:00:00 14.9 21 Noroeste 41 Oeste 0 -- -- 46
2020-10-23 18:00:00 17 23 Noroeste 43 Noroeste 0 -- -- 43
2020-10-23 17:00:00 17.8 22 Oeste 47 Noroeste 0 -- -- 41
2020-10-23 16:00:00 17.6 30 Noroeste 47 Noroeste 0 -- -- 43
2020-10-23 15:00:00 17.6 30 Noroeste 46 Noroeste 0 -- -- 44
2020-10-23 14:00:00 17.6 21 Noroeste 41 Oeste 0 -- -- 51
2020-10-23 13:00:00 17.2 24 Noroeste 42 Oeste 0 -- -- 54
2020-10-23 12:00:00 17 22 Oeste 39 Noroeste 0.2 -- -- 60
2020-10-23 11:00:00 16.2 20 Oeste 33 Oeste 0 -- -- 66
2020-10-23 10:00:00 15.3 10 Oeste 19 Oeste 0 -- -- 75
2020-10-23 09:00:00 13.2 6 Noroeste 13 Oeste 0 -- -- 85
2020-10-23 08:00:00 12.9 6 Noroeste 16 Oeste 0 -- -- 88
2020-10-23 07:00:00 13.5 10 Oeste 21 Oeste 0 -- -- 88
2020-10-23 06:00:00 13.9 13 Noroeste 21 Noroeste 0 -- -- 87
2020-10-23 05:00:00 14 10 Oeste 22 Sudoeste 0 -- -- 88
2020-10-23 04:00:00 13.5 12 Oeste 18 Oeste 0 -- -- 90
2020-10-23 03:00:00 12.6 5 Noroeste 10 Noroeste 2 -- -- 90
2020-10-23 02:00:00 12.4 3 Noroeste 6 Noroeste 0 -- -- 90
2020-10-23 01:00:00 12.3 0 Calma -- -- 0 -- -- 89
2020-10-23 00:00:00 12.3 0 Calma 3 Oeste 0 -- -- 89
2020-10-22 23:00:00 12.8 2 Oeste 8 Noroeste 0 -- -- 89
2020-10-22 22:00:00 13.2 4 Noroeste 6 Noroeste 0 -- -- 89
2020-10-22 21:00:00 13.3 4 Este 6 Este 0.2 -- -- 88
2020-10-22 20:00:00 13.6 3 Noroeste 7 Oeste 0 -- -- 88
2020-10-22 19:00:00 13.7 0 Calma 6 Noroeste 0.4 -- -- 87
2020-10-22 18:00:00 14.4 4 Noroeste 10 Oeste 0.4 -- -- 84
2020-10-22 17:00:00 15.9 0 Calma 8 Este 0.4 -- -- 81
2020-10-22 16:00:00 16.3 6 Este 13 Este 0 -- -- 74
2020-10-22 15:00:00 17.1 4 Este 10 Este 0 -- -- 69
2020-10-22 14:00:00 16.9 4 Este 14 Nordeste 0 -- -- 68
2020-10-22 13:00:00 16.4 12 Este 21 Este 0 -- -- 72
2020-10-22 12:00:00 15.2 10 Este 19 Este 0 -- -- 85
2020-10-22 11:00:00 14.5 14 Este 21 Este 0 -- -- 89
2020-10-22 10:00:00 14.7 2 Oeste 13 Este 0 -- -- 89
2020-10-22 09:00:00 14.5 7 Este 12 Este 0.2 -- -- 90
2020-10-22 08:00:00 14.4 0 Calma 8 Este 0 -- -- 89
2020-10-22 07:00:00 14.4 3 Este 12 Este 0 -- -- 89
2020-10-22 06:00:00 14.3 4 Este 5 Este 0 -- -- 88
2020-10-22 05:00:00 14.3 0 Calma 6 Oeste 0 -- -- 87
2020-10-22 04:00:00 14.1 2 Noroeste 8 Norte 0 -- -- 86
2020-10-22 03:00:00 13.9 3 Sudoeste 8 Este 0 -- -- 85
2020-10-22 02:00:00 13.4 0 Calma 5 Noroeste 0 -- -- 78
2020-10-22 01:00:00 13.1 0 Calma 11 Noroeste 0 -- -- 72
2020-10-22 00:00:00 13.6 6 Noroeste 13 Noroeste 0 -- -- 69
2020-10-21 23:00:00 13 8 Noroeste 10 Noroeste 0 -- -- 74
2020-10-21 22:00:00 13.6 5 Noroeste 15 Noroeste 0 -- -- 81
2020-10-21 21:00:00 14.4 6 Noroeste 12 Noroeste 0 -- -- 84
2020-10-21 20:00:00 15.6 8 Oeste 22 Sur 0 -- -- 82
2020-10-21 19:00:00 16.9 13 Sur 24 Sur 0 -- -- 79
2020-10-21 18:00:00 20.2 10 Sur 19 Sudeste 0 -- -- 59
2020-10-21 17:00:00 21.7 11 Sudeste 22 Sudeste 0 -- -- 51
2020-10-21 16:00:00 22.5 13 Sudeste 23 Sudeste 0 -- -- 50
2020-10-21 15:00:00 21.8 11 Sudeste 26 Sudeste 0 -- -- 59
2020-10-21 14:00:00 21.3 10 Sudeste 20 Sudeste 0 -- -- 61
2020-10-21 13:00:00 20.3 9 Sudeste 21 Sudeste 0 -- -- 69
2020-10-21 12:00:00 17.3 10 Este 17 Este 0 -- -- 83
2020-10-21 11:00:00 16.3 14 Este 21 Este 0 -- -- 87
2020-10-21 10:00:00 15.5 11 Este 16 Este 0 -- -- 89
2020-10-21 09:00:00 15.4 6 Sudeste 14 Este 0 -- -- 89
2020-10-21 08:00:00 15.4 4 Este 15 Este 0 -- -- 89
2020-10-21 07:00:00 15.3 8 Sudeste 17 Este 0 -- -- 89
2020-10-21 06:00:00 14.9 8 Sudeste 15 Este 0 -- -- 90
2020-10-21 05:00:00 14.9 8 Este 18 Este 0 -- -- 89
2020-10-21 04:00:00 14.8 10 Este 21 Este 0 -- -- 89
2020-10-21 03:00:00 14.9 9 Este 23 Sudeste 0 -- -- 89
2020-10-21 02:00:00 15.1 9 Sudeste 25 Este 0 -- -- 88
2020-10-21 01:00:00 15.3 15 Este 35 Este 0 -- -- 87
2020-10-21 00:00:00 15.1 17 Este 26 Este 0 -- -- 88
2020-10-20 23:00:00 14.8 13 Este 27 Este 0 -- -- 88
2020-10-20 22:00:00 14.5 17 Sudeste 33 Sudeste 0 -- -- 88
2020-10-20 21:00:00 14.4 17 Sudeste 31 Sudeste 0 -- -- 87
2020-10-20 20:00:00 14.4 12 Sudeste 23 Sudeste 0 -- -- 84
2020-10-20 19:00:00 14.4 13 Sudeste 22 Este 0 -- -- 81
2020-10-20 18:00:00 14.7 10 Sudeste 27 Sudeste 0 -- -- 77
2020-10-20 17:00:00 14.9 19 Sudeste 28 Sudeste 0 -- -- 81
2020-10-20 16:00:00 15.5 16 Sudeste 26 Sudeste 0 -- -- 76
2020-10-20 15:00:00 16.3 17 Sudeste 28 Sudeste 0 -- -- 64
2020-10-20 14:00:00 16.2 16 Sudeste 26 Sudeste 0 -- -- 65
2020-10-20 13:00:00 15.5 13 Sudeste 21 Sudeste 0 -- -- 76
2020-10-20 12:00:00 14.5 12 Sudeste 24 Sudeste 0 -- -- 82
2020-10-20 11:00:00 13.8 8 Sudeste 19 Sudeste 0 -- -- 89
2020-10-20 10:00:00 13.2 11 Sudeste 21 Sudeste 0 -- -- 89
2020-10-20 09:00:00 13.4 6 Sudeste 17 Sur 0 -- -- 89
2020-10-20 08:00:00 13.2 6 Sudeste 19 Sur 0 -- -- 87
2020-10-20 07:00:00 13.8 12 Sur 24 Sur 0 -- -- 85
2020-10-20 06:00:00 13.8 7 Sur 25 Sudoeste 0 -- -- 85
2020-10-20 05:00:00 13.9 10 Sudoeste 22 Sudoeste 0 -- -- 84
2020-10-20 04:00:00 13.9 10 Sur 22 Sur 0 -- -- 84
2020-10-20 03:00:00 13.9 5 Sur 19 Sur 0 -- -- 84
2020-10-20 02:00:00 13.9 9 Sur 22 Sudoeste 0 -- -- 86
2020-10-20 01:00:00 13.8 12 Sur 28 Sur 0 -- -- 86
2020-10-20 00:00:00 13.8 11 Sur 25 Sur 0 -- -- 83
2020-10-19 23:00:00 13.5 5 Sudoeste 21 Sudoeste 0 -- -- 80
2020-10-19 22:00:00 13.1 6 Sudoeste 17 Sudoeste 0 -- -- 81
2020-10-19 21:00:00 12.9 5 Sur 14 Sur 0 -- -- 82
2020-10-19 20:00:00 13.4 -- -- -- -- 0 -- -- --
2020-10-19 19:00:00 13.9 5 Sur 26 Sur 0 -- -- 75
2020-10-19 18:00:00 15 10 Sudoeste 23 Sudoeste 0 -- -- 71
2020-10-19 17:00:00 15.7 12 Sur 26 Sur 0 -- -- 64
2020-10-19 16:00:00 16.6 13 Sur 27 Sudoeste 0 -- -- 59
2020-10-19 15:00:00 16.6 10 Sudoeste 27 Sur 0 -- -- 63
2020-10-19 14:00:00 15.8 15 Sudoeste 25 Sudoeste 0 -- -- 64
2020-10-19 13:00:00 14.6 13 Sur 21 Sur 0 -- -- 76
2020-10-19 12:00:00 14.5 10 Sur 23 Sur 0 -- -- 78
2020-10-19 11:00:00 13.9 4 Sur 14 Sur 0 -- -- 81
2020-10-19 10:00:00 12.7 2 Sudeste 8 Este 0 -- -- 88
2020-10-19 09:00:00 11.6 3 Sur 9 Sudoeste 0 -- -- 89
2020-10-19 08:00:00 9.7 0 Calma 6 Oeste 0 -- -- 90
2020-10-19 07:00:00 9.3 2 Norte 8 Noroeste 0 -- -- 88
2020-10-19 06:00:00 8.7 6 Noroeste 11 Noroeste 0 -- -- 88
2020-10-19 05:00:00 9.2 7 Noroeste 14 Noroeste 0 -- -- 87
2020-10-19 04:00:00 10.5 9 Noroeste 16 Noroeste 0 -- -- 86
2020-10-19 03:00:00 10.3 10 Noroeste 18 Noroeste 0 -- -- 87
2020-10-19 02:00:00 8.5 8 Noroeste 10 Noroeste 0 -- -- 87
2020-10-19 01:00:00 9.3 5 Noroeste 11 Noroeste 0 -- -- 87
2020-10-19 00:00:00 -- -- -- -- -- -- -- -- --
2020-10-18 23:00:00 -- -- -- -- -- -- -- -- --
2020-10-18 22:00:00 -- -- -- -- -- -- -- -- --
2020-10-18 21:00:00 -- -- -- -- -- -- -- -- --
2020-10-18 20:00:00 -- -- -- -- -- -- -- -- --
2020-10-18 19:00:00 -- -- -- -- -- -- -- -- --
2020-10-18 18:00:00 -- -- -- -- -- -- -- -- --
2020-10-18 17:00:00 -- -- -- -- -- -- -- -- --
2020-10-18 16:00:00 -- -- -- -- -- -- -- -- --
2020-10-18 15:00:00 -- -- -- -- -- -- -- -- --
2020-10-18 14:00:00 -- -- -- -- -- -- -- -- --
2020-10-18 13:00:00 -- -- -- -- -- -- -- -- --
2020-10-18 12:00:00 -- -- -- -- -- -- -- -- --
2020-10-18 11:00:00 -- -- -- -- -- -- -- -- --
2020-10-18 10:00:00 -- -- -- -- -- -- -- -- --
2020-10-18 09:00:00 -- -- -- -- -- -- -- -- --
2020-10-18 08:00:00 -- -- -- -- -- -- -- -- --
2020-10-18 07:00:00 -- -- -- -- -- -- -- -- --
2020-10-18 06:00:00 -- -- -- -- -- -- -- -- --
2020-10-18 05:00:00 -- -- -- -- -- -- -- -- --
2020-10-18 04:00:00 -- -- -- -- -- -- -- -- --
2020-10-18 03:00:00 -- -- -- -- -- -- -- -- --
2020-10-18 02:00:00 -- -- -- -- -- -- -- -- --
2020-10-18 01:00:00 -- -- -- -- -- -- -- -- --
2020-10-18 00:00:00 -- -- -- -- -- -- -- -- --
2020-10-17 23:00:00 -- -- -- -- -- -- -- -- --
2020-10-17 22:00:00 -- -- -- -- -- -- -- -- --
2020-10-17 21:00:00 -- -- -- -- -- -- -- -- --
2020-10-17 20:00:00 -- -- -- -- -- -- -- -- --
2020-10-17 19:00:00 -- -- -- -- -- -- -- -- --
2020-10-17 18:00:00 -- -- -- -- -- -- -- -- --
2020-10-17 17:00:00 -- -- -- -- -- -- -- -- --
2020-10-17 16:00:00 -- -- -- -- -- -- -- -- --
2020-10-17 15:00:00 -- -- -- -- -- -- -- -- --
2020-10-17 14:00:00 -- -- -- -- -- -- -- -- --
2020-10-17 13:00:00 -- -- -- -- -- -- -- -- --
2020-10-17 12:00:00 -- -- -- -- -- -- -- -- --
2020-10-17 11:00:00 -- -- -- -- -- -- -- -- --
2020-10-17 10:00:00 -- -- -- -- -- -- -- -- --
2020-10-17 09:00:00 -- -- -- -- -- -- -- -- --
2020-10-17 08:00:00 -- -- -- -- -- -- -- -- --
2020-10-17 07:00:00 -- -- -- -- -- -- -- -- --
2020-10-17 06:00:00 -- -- -- -- -- -- -- -- --
2020-10-17 05:00:00 -- -- -- -- -- -- -- -- --
2020-10-17 04:00:00 -- -- -- -- -- -- -- -- --
2020-10-17 03:00:00 4.7 5 Noroeste 10 Noroeste 0 -- -- 61
2020-10-17 02:00:00 4.4 7 Noroeste 12 Noroeste 0 -- -- 63
2020-10-17 01:00:00 5 2 Noroeste 11 Noroeste 0 -- -- 61
2020-10-17 00:00:00 5.4 6 Noroeste 12 Noroeste 0 -- -- 61
2020-10-16 23:00:00 5.3 6 Noroeste 11 Noroeste 0 -- -- 61
2020-10-16 22:00:00 5.5 9 Noroeste 12 Noroeste 0 -- -- 59
2020-10-16 21:00:00 5 6 Noroeste 9 Noroeste 0 -- -- 64
2020-10-16 20:00:00 7.2 4 Noroeste 9 Noroeste 0 -- -- 60
2020-10-16 19:00:00 10.6 5 Oeste 18 Sudoeste 0 -- -- 45
2020-10-16 18:00:00 14.6 10 Sudeste 24 Sudeste 0 -- -- 34
2020-10-16 17:00:00 16.3 7 Oeste 21 Noroeste 0 -- -- 29
2020-10-16 16:00:00 15.6 15 Oeste 24 Oeste 0 -- -- 27
2020-10-16 15:00:00 15.5 7 Sudoeste 16 Noroeste 0 -- -- 29
2020-10-16 14:00:00 14.4 5 Norte 21 Oeste 0 -- -- 32
2020-10-16 13:00:00 13.1 12 Oeste 21 Noroeste 0 -- -- 34
2020-10-16 12:00:00 11.6 10 Norte 21 Noroeste 0 -- -- 34
2020-10-16 11:00:00 10.6 7 Noroeste 26 Noroeste 0 -- -- 44
2020-10-16 10:00:00 8.1 9 Noroeste 15 Noroeste 0 -- -- 50
2020-10-16 09:00:00 6.2 5 Noroeste 16 Oeste 0 -- -- 57
2020-10-16 08:00:00 3.9 3 Oeste 22 Oeste 0 -- -- 64
2020-10-16 07:00:00 3.9 13 Oeste 32 Oeste 0 -- -- 69
2020-10-16 06:00:00 4.2 22 Oeste 31 Oeste 0 -- -- 67
2020-10-16 05:00:00 4.8 11 Sudoeste 33 Noroeste 0 -- -- 61
2020-10-16 04:00:00 5.6 10 Noroeste 28 Noroeste 0 -- -- 57
2020-10-16 03:00:00 5.8 5 Sudoeste 20 Noroeste 0 -- -- 53
2020-10-16 02:00:00 6.7 11 Noroeste 27 Noroeste 0 -- -- 52
2020-10-16 01:00:00 7.6 14 Noroeste 27 Noroeste 0 -- -- 50
2020-10-16 00:00:00 7.5 9 Noroeste 21 Noroeste 0 -- -- 50
2020-10-15 23:00:00 7.4 6 Oeste 17 Noroeste 0 -- -- 48
2020-10-15 22:00:00 8.2 9 Noroeste 22 Noroeste 0 -- -- 44
2020-10-15 21:00:00 8.8 10 Noroeste 22 Noroeste 0 -- -- 43
2020-10-15 20:00:00 10.4 14 Noroeste 24 Noroeste 0 -- -- 40
2020-10-15 19:00:00 11.6 9 Oeste 36 Oeste 0 -- -- 39
2020-10-15 18:00:00 14 22 Oeste 38 Oeste 0 -- -- 34
2020-10-15 17:00:00 14.8 19 Noroeste 40 Noroeste 0 -- -- 32
2020-10-15 16:00:00 14.7 24 Oeste 40 Noroeste 0 -- -- 36
2020-10-15 15:00:00 13.9 21 Noroeste 43 Noroeste 0 -- -- 36
2020-10-15 14:00:00 13.4 24 Noroeste 42 Oeste 0 -- -- 43
2020-10-15 13:00:00 12.2 14 Noroeste 38 Noroeste 0 -- -- 50
2020-10-15 12:00:00 9.9 23 Noroeste 39 Noroeste 0 -- -- 53
2020-10-15 11:00:00 8.3 22 Noroeste 39 Noroeste 0 -- -- 60
2020-10-15 10:00:00 7 22 Noroeste 44 Noroeste 0 -- -- 65
2020-10-15 09:00:00 5.8 13 Noroeste 29 Noroeste 0 -- -- 69
2020-10-15 08:00:00 4.5 15 Noroeste 37 Noroeste 0 -- -- 74
2020-10-15 07:00:00 4.8 21 Noroeste 32 Noroeste 0 -- -- 73
2020-10-15 06:00:00 5 21 Noroeste 37 Noroeste 0 -- -- 71
2020-10-15 05:00:00 5.4 23 Noroeste 36 Noroeste 0 -- -- 71
2020-10-15 04:00:00 5.8 21 Noroeste 37 Noroeste 0 -- -- 67
2020-10-15 03:00:00 6 24 Noroeste 40 Noroeste 0 -- -- 66
2020-10-15 02:00:00 5.8 21 Noroeste 33 Noroeste 0 -- -- 68
2020-10-15 01:00:00 6 16 Noroeste 30 Noroeste 0 -- -- 68
2020-10-15 00:00:00 6.7 17 Noroeste 37 Noroeste 0 -- -- 65
2020-10-14 23:00:00 7.5 20 Noroeste 39 Noroeste 0 -- -- 61
2020-10-14 22:00:00 8.4 28 Noroeste 50 Noroeste 0 -- -- 56
2020-10-14 21:00:00 9.4 32 Noroeste 50 Noroeste 0 -- -- 50
2020-10-14 20:00:00 10.1 32 Oeste 48 Noroeste 0 -- -- 49
2020-10-14 19:00:00 11 28 Noroeste 44 Oeste 0 -- -- 48
2020-10-14 18:00:00 12.4 27 Oeste 46 Noroeste 0 -- -- 43
2020-10-14 17:00:00 14.3 22 Noroeste 43 Oeste 0 -- -- 37
2020-10-14 16:00:00 14.2 31 Oeste 48 Sudoeste 0 -- -- 41
2020-10-14 15:00:00 13 21 Oeste 42 Oeste 0 -- -- 45
2020-10-14 14:00:00 12.1 9 Noroeste 24 Oeste 0 -- -- 54
2020-10-14 13:00:00 11.7 15 Noroeste 24 Oeste 0 -- -- 58
2020-10-14 12:00:00 11 10 Noroeste 26 Noroeste 0 -- -- 64
2020-10-14 11:00:00 9.8 11 Noroeste 22 Oeste 0 -- -- 71
2020-10-14 10:00:00 8.7 16 Noroeste 31 Noroeste 0 -- -- 73
2020-10-14 09:00:00 8.2 3 Noroeste 17 Norte 0 -- -- 76
2020-10-14 08:00:00 8.3 6 Noroeste 17 Noroeste 0 -- -- 75
2020-10-14 07:00:00 8.1 2 Norte 17 Sudeste 0 -- -- 81
2020-10-14 06:00:00 8.4 10 Sur 41 Noroeste 0.8 -- -- 80
2020-10-14 05:00:00 8.4 8 Oeste 32 Oeste 1.6 -- -- 81
2020-10-14 04:00:00 9.5 5 Sudeste 13 Sudeste 0.6 -- -- 69
2020-10-14 03:00:00 10.4 6 Este 13 Este 0 -- -- 53
2020-10-14 02:00:00 8.4 8 Este 11 Este 0 -- -- 63
2020-10-14 01:00:00 6.9 4 Noroeste 9 Noroeste 0 -- -- 65
2020-10-14 00:00:00 8 2 Noroeste 6 Este 0 -- -- 63
2020-10-13 23:00:00 9.3 3 Este 8 Este 0 -- -- 58
2020-10-13 22:00:00 10.7 3 Este 15 Oeste 0 -- -- 52
2020-10-13 21:00:00 12.7 14 Oeste 29 Oeste 0 -- -- 46
2020-10-13 20:00:00 13.6 14 Noroeste 31 Noroeste 0 -- -- 44
2020-10-13 19:00:00 14.7 10 Oeste 33 Oeste 0 -- -- 39
2020-10-13 18:00:00 17.2 17 Noroeste 45 Noroeste 0 -- -- 34
2020-10-13 17:00:00 17.3 26 Oeste 47 Oeste 0 -- -- 34
2020-10-13 16:00:00 18.4 18 Noroeste 37 Oeste 0 -- -- 36
2020-10-13 15:00:00 17.7 25 Noroeste 39 Noroeste 0 -- -- 42
2020-10-13 14:00:00 17.5 17 Noroeste 26 Oeste 0 -- -- 39
2020-10-13 13:00:00 16.7 13 Noroeste 35 Noroeste 0 -- -- 43
2020-10-13 12:00:00 15.4 17 Oeste 28 Noroeste 0 -- -- 46
2020-10-13 11:00:00 14.1 8 Oeste 32 Noroeste 0 -- -- 48
2020-10-13 10:00:00 -- -- -- -- -- -- -- -- --
2020-10-13 09:00:00 10.3 6 Oeste 26 Norte 0 -- -- 66
2020-10-13 08:00:00 9.2 6 Sudoeste 24 Oeste 0 -- -- 60
2020-10-13 07:00:00 9.3 11 Noroeste 20 Noroeste 0 -- -- 56
2020-10-13 06:00:00 9.1 10 Noroeste 24 Oeste 0 -- -- 53
2020-10-13 05:00:00 9.9 9 Noroeste 21 Sudoeste 0 -- -- 48
2020-10-13 04:00:00 9 6 Noroeste 22 Oeste 0 -- -- 56
2020-10-13 03:00:00 9.7 8 Noroeste 20 Noroeste 0 -- -- 53
2020-10-13 02:00:00 10.9 9 Oeste 24 Noroeste 0 -- -- 46
2020-10-13 01:00:00 -- -- -- -- -- -- -- -- --
2020-10-13 00:00:00 11.3 18 Oeste 41 Oeste 0 -- -- 48
2020-10-12 23:00:00 11.4 23 Noroeste 39 Oeste 0 -- -- 46
2020-10-12 22:00:00 11.7 24 Noroeste 39 Noroeste 0 -- -- 42
2020-10-12 21:00:00 12.8 21 Oeste 33 Oeste 0 -- -- 39
2020-10-12 20:00:00 13.3 10 Noroeste 26 Noroeste 0 -- -- 31
2020-10-12 19:00:00 14.7 10 Noroeste 34 Noroeste 0 -- -- 29
2020-10-12 18:00:00 -- -- -- -- -- -- -- -- --
2020-10-12 17:00:00 16.9 26 Noroeste 42 Noroeste 0 -- -- 28
2020-10-12 16:00:00 16.9 26 Noroeste 46 Noroeste 0 -- -- 28
2020-10-12 15:00:00 16.5 31 Noroeste 49 Noroeste 0 -- -- 27
2020-10-12 14:00:00 15.9 28 Noroeste 50 Noroeste 0 -- -- 30
2020-10-12 13:00:00 15.6 19 Noroeste 45 Noroeste 0 -- -- 30
2020-10-12 12:00:00 13.8 23 Noroeste 44 Noroeste 0 -- -- 35
2020-10-12 11:00:00 12 21 Noroeste 46 Noroeste 0 -- -- 43
2020-10-12 10:00:00 11.1 8 Noroeste 31 Noroeste 0 -- -- 48
2020-10-12 09:00:00 8.6 12 Noroeste 28 Noroeste 0 -- -- 60
2020-10-12 08:00:00 7.2 12 Noroeste 37 Noroeste 0 -- -- 64
2020-10-12 07:00:00 6.8 15 Noroeste 31 Noroeste 0 -- -- 68
2020-10-12 06:00:00 7.1 18 Noroeste 32 Noroeste 0 -- -- 64
2020-10-12 05:00:00 7.3 18 Noroeste 34 Noroeste 0 -- -- 63
2020-10-12 04:00:00 -- -- -- -- -- -- -- -- --
2020-10-12 03:00:00 7.6 21 Noroeste 33 Noroeste 0 -- -- 62
2020-10-12 02:00:00 7.8 16 Noroeste 32 Noroeste 0 -- -- 60
2020-10-12 01:00:00 8.2 17 Noroeste 27 Oeste 0 -- -- 58
2020-10-12 00:00:00 8.3 9 Noroeste 27 Noroeste 0 -- -- 55
2020-10-11 23:00:00 10.7 14 Noroeste 30 Noroeste 0 -- -- 42
2020-10-11 22:00:00 10.7 9 Noroeste 21 Noroeste 0 -- -- 45
2020-10-11 21:00:00 -- -- -- -- -- -- -- -- --
2020-10-11 20:00:00 -- -- -- -- -- -- -- -- --
2020-10-11 19:00:00 14.4 23 Noroeste 39 Oeste 0 -- -- 38
2020-10-11 18:00:00 15 15 Noroeste 33 Noroeste 0 -- -- 35
2020-10-11 17:00:00 17 18 Oeste 45 Noroeste 0 -- -- 25
2020-10-11 16:00:00 17.2 21 Noroeste 50 Noroeste 0 -- -- 26
2020-10-11 15:00:00 16.4 23 Noroeste 44 Noroeste 0 -- -- 28
2020-10-11 14:00:00 16 17 Noroeste 37 Oeste 0 -- -- 30
2020-10-11 13:00:00 14.7 17 Noroeste 39 Noroeste 0 -- -- 32
2020-10-11 12:00:00 13.8 15 Norte 33 Noroeste 0 -- -- 38
2020-10-11 11:00:00 11.6 18 Noroeste 35 Noroeste 0 -- -- 49
2020-10-11 10:00:00 10.2 10 Noroeste 27 Noroeste 0 -- -- 58
2020-10-11 09:00:00 8.6 10 Oeste 17 Oeste 0 -- -- 65
2020-10-11 08:00:00 7 5 Oeste 18 Oeste 0 -- -- 73
2020-10-11 07:00:00 7.8 13 Oeste 21 Oeste 0 -- -- 70
2020-10-11 06:00:00 8.5 6 Noroeste 16 Noroeste 0 -- -- 68
2020-10-11 05:00:00 9.2 12 Oeste 19 Oeste 0 -- -- 66
2020-10-11 04:00:00 9.3 10 Oeste 18 Oeste 0 -- -- 68
2020-10-11 03:00:00 9.4 12 Noroeste 23 Oeste 0 -- -- 66
2020-10-11 02:00:00 9.5 13 Oeste 21 Oeste 0 -- -- 67
2020-10-11 01:00:00 9.8 3 Noroeste 9 Este 0 -- -- 69
2020-10-11 00:00:00 11.4 4 Sudoeste 14 Noroeste 0 -- -- 69
2020-10-10 23:00:00 13 5 Sudoeste 17 Noroeste 0 -- -- 72
2020-10-10 22:00:00 14.2 8 Oeste 16 Oeste 0 -- -- 86
2020-10-10 21:00:00 14.6 3 Sudoeste 8 Sur 0 -- -- 86
2020-10-10 20:00:00 14.8 6 Sudeste 13 Sur 0 -- -- 85
2020-10-10 19:00:00 15.3 7 Sur 17 Sur 0 -- -- 83
2020-10-10 18:00:00 16.2 10 Sudeste 21 Sudeste 0 -- -- 80
2020-10-10 17:00:00 16.5 14 Sudeste 21 Sur 0 -- -- 79
2020-10-10 16:00:00 18.6 7 Sur 21 Oeste 0 -- -- 67
2020-10-10 15:00:00 20.3 4 Oeste 17 Oeste 0 -- -- 52
2020-10-10 14:00:00 19.5 13 Oeste 21 Oeste 0 -- -- 52
2020-10-10 13:00:00 19.9 8 Oeste 22 Oeste 0 -- -- 53
2020-10-10 12:00:00 18.8 8 Noroeste 16 Oeste 0 -- -- 60
2020-10-10 11:00:00 16.5 9 Noroeste 15 Noroeste 0 -- -- 67
2020-10-10 10:00:00 15.6 5 Noroeste 20 Noroeste 0 -- -- 75
2020-10-10 09:00:00 15.3 8 Noroeste 13 Noroeste 0 -- -- 86
2020-10-10 08:00:00 14.7 5 Noroeste 8 Noroeste 0 -- -- 88
2020-10-10 07:00:00 14.8 5 Norte 8 Noroeste 0 -- -- 89
2020-10-10 06:00:00 14.5 5 Noroeste 10 Noroeste 0 -- -- 88
2020-10-10 05:00:00 14 6 Noroeste 10 Noroeste 0 -- -- 87
2020-10-10 04:00:00 13.8 9 Noroeste 13 Noroeste 0 -- -- 88
2020-10-10 03:00:00 14.4 3 Noroeste 6 Noroeste 0 -- -- 88
2020-10-10 02:00:00 15.5 2 Sudoeste 4 Oeste 0 -- -- 87
2020-10-10 01:00:00 15.1 0 Calma 6 Oeste 0 -- -- 88
2020-10-10 00:00:00 14.4 0 Calma 4 Oeste 0 -- -- 87
2020-10-09 23:00:00 15.3 5 Noroeste 16 Noroeste 0 -- -- 86
2020-10-09 22:00:00 16.3 7 Noroeste 15 Oeste 0 -- -- 85
2020-10-09 21:00:00 17.1 9 Oeste 16 Oeste 0 -- -- 82
2020-10-09 20:00:00 17.5 9 Oeste 18 Oeste 0 -- -- 81
2020-10-09 19:00:00 17.6 14 Sudoeste 22 Oeste 0 -- -- 79
2020-10-09 18:00:00 19.2 12 Oeste 22 Sudoeste 0 -- -- 74
2020-10-09 17:00:00 19.9 17 Sudoeste 26 Oeste 0 -- -- 70
2020-10-09 16:00:00 21.3 20 Sudoeste 28 Sudoeste 0 -- -- 64
2020-10-09 15:00:00 21.4 14 Sudoeste 23 Sudoeste 0 -- -- 62
2020-10-09 14:00:00 21 14 Sudoeste 20 Oeste 0 -- -- 63
2020-10-09 13:00:00 20.9 13 Sudoeste 21 Sudoeste 0 -- -- 63
2020-10-09 12:00:00 18.6 8 Oeste 21 Oeste 0 -- -- 73
2020-10-09 11:00:00 18.2 14 Oeste 24 Oeste 0 -- -- 77
2020-10-09 10:00:00 17.7 11 Oeste 20 Oeste 0 -- -- 79
2020-10-09 09:00:00 16.3 12 Oeste 20 Oeste 0 -- -- 85
2020-10-09 08:00:00 15.8 9 Oeste 18 Noroeste 0 -- -- 87
2020-10-09 07:00:00 15.7 11 Noroeste 22 Noroeste 0 -- -- 87
2020-10-09 06:00:00 16 11 Noroeste 22 Noroeste 0 -- -- 87
2020-10-09 05:00:00 16.1 12 Noroeste 23 Noroeste 0 -- -- 86
2020-10-09 04:00:00 16 8 Noroeste 20 Noroeste 0 -- -- 83
2020-10-09 03:00:00 16 13 Oeste 22 Noroeste 0 -- -- 84
2020-10-09 02:00:00 15.8 13 Oeste 18 Noroeste 0 -- -- 85
2020-10-09 01:00:00 14.6 9 Oeste 18 Oeste 0 -- -- 87
2020-10-09 00:00:00 14.9 10 Noroeste 17 Oeste 0 -- -- 86
2020-10-08 23:00:00 15.8 13 Noroeste 18 Noroeste 0 -- -- 84
2020-10-08 22:00:00 16.5 11 Oeste 19 Sudoeste 0 -- -- 83
2020-10-08 21:00:00 16.8 5 Oeste 14 Oeste 0 -- -- 82
2020-10-08 20:00:00 16.7 10 Oeste 24 Oeste 0 -- -- 83
2020-10-08 19:00:00 17.2 8 Oeste 29 Oeste 0 -- -- 80
2020-10-08 18:00:00 19.8 15 Oeste 27 Sudoeste 0 -- -- 68
2020-10-08 17:00:00 20.7 17 Sudoeste 26 Sudoeste 0 -- -- 63
2020-10-08 16:00:00 21.3 16 Sudoeste 28 Oeste 0 -- -- 57
2020-10-08 15:00:00 21.2 15 Sudoeste 28 Oeste 0 -- -- 54
2020-10-08 14:00:00 20.4 15 Oeste 26 Sudoeste 0 -- -- 56
2020-10-08 13:00:00 18.6 12 Oeste 29 Sudoeste 0 -- -- 63
2020-10-08 12:00:00 18.3 13 Sudoeste 30 Oeste 0 -- -- 63
2020-10-08 11:00:00 17.1 14 Sudoeste 23 Sudoeste 0 -- -- 63
2020-10-08 10:00:00 15.7 5 Oeste 15 Noroeste 0 -- -- 74
2020-10-08 09:00:00 12.5 5 Noroeste 7 Noroeste 0 -- -- 86
2020-10-08 08:00:00 11.9 5 Noroeste 7 Noroeste 0 -- -- 87
2020-10-08 07:00:00 12.8 4 Oeste 10 Noroeste 0 -- -- 86
2020-10-08 06:00:00 13.4 0 Calma 9 Oeste 0 -- -- 86
2020-10-08 05:00:00 14.5 2 Oeste 13 Sudoeste 0 -- -- 84
2020-10-08 04:00:00 14.7 11 Sudoeste 15 Sudoeste 0 -- -- 84
2020-10-08 03:00:00 14.9 0 Calma 12 Sudoeste 0 -- -- 86
2020-10-08 02:00:00 15 8 Sudoeste 12 Sur 0 -- -- 89
2020-10-08 01:00:00 14.8 6 Sudoeste 17 Sur 0 -- -- 89
2020-10-08 00:00:00 15 6 Sudoeste 10 Sur 0 -- -- 89
2020-10-07 23:00:00 14.8 6 Sudoeste 13 Sur 0 -- -- 89
2020-10-07 22:00:00 15.1 8 Sur 14 Sur 0 -- -- 89
2020-10-07 21:00:00 15.2 7 Sudoeste 18 Sudoeste 0 -- -- 89
2020-10-07 20:00:00 15.4 10 Sudoeste 16 Sudoeste 0 -- -- 87
2020-10-07 19:00:00 15.8 8 Sur 21 Sur 0 -- -- 86
2020-10-07 18:00:00 16.9 8 Sudoeste 24 Sur 0 -- -- 82
2020-10-07 17:00:00 18.1 9 Sudeste 26 Sudeste 0 -- -- 77
2020-10-07 16:00:00 22.9 13 Oeste 28 Noroeste 0 -- -- 50
2020-10-07 15:00:00 21.1 15 Noroeste 30 Oeste 0 -- -- 51
2020-10-07 14:00:00 21.1 11 Oeste 19 Oeste 0 -- -- 52
2020-10-07 13:00:00 21.1 6 Noroeste 23 Noroeste 0 -- -- 52
2020-10-07 12:00:00 19.1 9 Noroeste 42 Oeste 0 -- -- 59
2020-10-07 11:00:00 17.7 24 Noroeste 60 Noroeste 0 -- -- 63
2020-10-07 10:00:00 16.8 27 Noroeste 64 Noroeste 0 -- -- 65
2020-10-07 09:00:00 16.6 35 Noroeste 76 Noroeste 0 -- -- 63
2020-10-07 08:00:00 16.8 40 Noroeste 63 Noroeste 0 -- -- 60
2020-10-07 07:00:00 17.8 41 Noroeste 71 Noroeste 0 -- -- 55
2020-10-07 06:00:00 18 35 Noroeste 58 Noroeste 0 -- -- 59
2020-10-07 05:00:00 18.1 38 Noroeste 59 Noroeste 0 -- -- 58
2020-10-07 04:00:00 18.1 36 Noroeste 59 Noroeste 0 -- -- 57
2020-10-07 03:00:00 18.3 30 Noroeste 53 Noroeste 0 -- -- 55
2020-10-07 02:00:00 18.4 32 Noroeste 50 Noroeste 0 -- -- 53
2020-10-07 01:00:00 18.2 30 Noroeste 54 Noroeste 0 -- -- 54
2020-10-07 00:00:00 18 28 Noroeste 39 Noroeste 0 -- -- 54
2020-10-06 23:00:00 18.6 30 Noroeste 59 Oeste 0 -- -- 53
2020-10-06 22:00:00 19.2 32 Noroeste 49 Oeste 0 -- -- 52
2020-10-06 21:00:00 19.6 38 Oeste 58 Oeste 0 -- -- 50
2020-10-06 20:00:00 19.3 27 Noroeste 44 Noroeste 0 -- -- 52
2020-10-06 19:00:00 19.7 21 Oeste 40 Oeste 0 -- -- 51
2020-10-06 18:00:00 20.3 25 Noroeste 45 Oeste 0 -- -- 47
2020-10-06 17:00:00 21.1 32 Noroeste 58 Oeste 0 -- -- 44
2020-10-06 16:00:00 21.1 28 Oeste 45 Oeste 0 -- -- 44
2020-10-06 15:00:00 19.9 33 Oeste 48 Oeste 0 -- -- 44
2020-10-06 14:00:00 19.9 26 Oeste 48 Oeste 0 -- -- 41
2020-10-06 13:00:00 18.8 30 Noroeste 46 Noroeste 0 -- -- 44
2020-10-06 12:00:00 17.8 21 Noroeste 48 Noroeste 0 -- -- 46
2020-10-06 11:00:00 16.8 15 Oeste 29 Oeste 0 -- -- 44
2020-10-06 10:00:00 15 10 Noroeste 23 Noroeste 0 -- -- 45
2020-10-06 09:00:00 12.2 8 Noroeste 16 Oeste 0 -- -- 55
2020-10-06 08:00:00 9.2 10 Noroeste 15 Noroeste 0 -- -- 66
2020-10-06 07:00:00 9.1 11 Noroeste 18 Oeste 0 -- -- 65
2020-10-06 06:00:00 10 12 Noroeste 22 Oeste 0 -- -- 61
2020-10-06 05:00:00 11.2 21 Oeste 29 Oeste 0 -- -- 56
2020-10-06 04:00:00 10.5 11 Noroeste 17 Oeste 0 -- -- 57
2020-10-06 03:00:00 10 14 Oeste 18 Oeste 0 -- -- 58
2020-10-06 02:00:00 7.8 8 Noroeste 10 Noroeste 0 -- -- 66
2020-10-06 01:00:00 7.4 6 Noroeste 9 Noroeste 0 -- -- 69
2020-10-06 00:00:00 9.6 0 Calma 18 Oeste 0 -- -- 61
2020-10-05 23:00:00 11.3 13 Noroeste 23 Oeste 0 -- -- 54
2020-10-05 22:00:00 12.8 16 Noroeste 27 Noroeste 0 -- -- 48
2020-10-05 21:00:00 13.2 19 Noroeste 29 Oeste 0 -- -- 49
2020-10-05 20:00:00 13.4 18 Noroeste 30 Oeste 0 -- -- 51
2020-10-05 19:00:00 15.1 20 Noroeste 36 Oeste 0 -- -- 45
2020-10-05 18:00:00 16.6 19 Noroeste 39 Noroeste 0 -- -- 41
2020-10-05 17:00:00 17.5 23 Noroeste 44 Noroeste 0 -- -- 39
2020-10-05 16:00:00 16.9 25 Oeste 51 Noroeste 0 -- -- 40
2020-10-05 15:00:00 16.6 25 Noroeste 53 Noroeste 0 -- -- 40
2020-10-05 14:00:00 15.6 28 Noroeste 55 Noroeste 0 -- -- 44
2020-10-05 13:00:00 14.6 21 Noroeste 62 Noroeste 0 -- -- 46
2020-10-05 12:00:00 13.5 31 Noroeste 61 Noroeste 0 -- -- 50
2020-10-05 11:00:00 12.6 28 Noroeste 64 Noroeste 0 -- -- 51
2020-10-05 10:00:00 11.5 36 Noroeste 58 Noroeste 0 -- -- 53
2020-10-05 09:00:00 11.2 26 Noroeste 55 Noroeste 0 -- -- 51
2020-10-05 08:00:00 10.2 30 Noroeste 54 Noroeste 0 -- -- 55
2020-10-05 07:00:00 10.4 28 Noroeste 48 Noroeste 0 -- -- 53
2020-10-05 06:00:00 10.1 24 Noroeste 40 Noroeste 0 -- -- 54
2020-10-05 05:00:00 10 16 Noroeste 28 Noroeste 0 -- -- 53
2020-10-05 04:00:00 10.2 19 Noroeste 39 Noroeste 0 -- -- 52
2020-10-05 03:00:00 10.5 29 Noroeste 45 Noroeste 0 -- -- 51
2020-10-05 02:00:00 11 31 Noroeste 65 Noroeste 0 -- -- 50
2020-10-05 01:00:00 11.6 44 Noroeste 68 Noroeste 0 -- -- 49
2020-10-05 00:00:00 10.7 36 Oeste 60 Noroeste 0 -- -- 56
2020-10-04 23:00:00 11.1 36 Noroeste 63 Oeste 0 -- -- 54
2020-10-04 22:00:00 11.3 34 Noroeste 57 Oeste 0 -- -- 53
2020-10-04 21:00:00 12 35 Noroeste 56 Oeste 0 -- -- 50
2020-10-04 20:00:00 12.3 38 Oeste 62 Noroeste 0 -- -- 49
2020-10-04 19:00:00 13.3 24 Oeste 50 Oeste 0 -- -- 52
2020-10-04 18:00:00 14.8 35 Noroeste 55 Oeste 0 -- -- 44
2020-10-04 17:00:00 14.8 29 Oeste 48 Oeste 0 -- -- 48
2020-10-04 16:00:00 15.4 31 Oeste 51 Oeste 0 -- -- 47
2020-10-04 15:00:00 14.9 39 Oeste 53 Noroeste 0 -- -- 46
2020-10-04 14:00:00 15.5 26 Noroeste 40 Noroeste 0 -- -- 42
2020-10-04 13:00:00 14.8 20 Noroeste 42 Noroeste 0 -- -- 44
2020-10-04 12:00:00 14.7 19 Noroeste 35 Oeste 0 -- -- 46
2020-10-04 11:00:00 13.3 21 Oeste 34 Noroeste 0 -- -- 46
2020-10-04 10:00:00 12.2 22 Oeste 31 Oeste 0 -- -- 49
2020-10-04 09:00:00 10.9 12 Oeste 21 Oeste 0 -- -- 52
2020-10-04 08:00:00 9.7 15 Oeste 28 Sudoeste 0 -- -- 54
2020-10-04 07:00:00 10.2 17 Oeste 25 Oeste 0 -- -- 52
2020-10-04 06:00:00 9.8 12 Oeste 17 Oeste 0 -- -- 54
2020-10-04 05:00:00 10 12 Oeste 25 Oeste 0 -- -- 52
2020-10-04 04:00:00 10.1 14 Oeste 31 Noroeste 0 -- -- 52
2020-10-04 03:00:00 10.5 14 Noroeste 29 Noroeste 0 -- -- 50
2020-10-04 02:00:00 9.7 13 Noroeste 25 Noroeste 0 -- -- 55
2020-10-04 01:00:00 7.1 13 Noroeste 16 Noroeste 0 -- -- 68
2020-10-04 00:00:00 8.2 10 Noroeste 14 Noroeste 0 -- -- 67
2020-10-03 23:00:00 7.5 12 Noroeste 15 Noroeste 0 -- -- 72
2020-10-03 22:00:00 9.9 9 Noroeste 25 Noroeste 0 -- -- 62
2020-10-03 21:00:00 11.1 13 Noroeste 35 Noroeste 0 -- -- 56
2020-10-03 20:00:00 11.9 26 Noroeste 46 Noroeste 0 -- -- 52
2020-10-03 19:00:00 13 24 Noroeste 60 Noroeste 0 -- -- 49
2020-10-03 18:00:00 13.9 44 Noroeste 80 Noroeste 0 -- -- 44
2020-10-03 17:00:00 13.3 49 Oeste 76 Oeste 0 -- -- 46
2020-10-03 16:00:00 12.8 39 Noroeste 72 Oeste 0 -- -- 48
2020-10-03 15:00:00 12.2 30 Noroeste 63 Oeste 0 -- -- 52
2020-10-03 14:00:00 11.3 40 Noroeste 77 Noroeste 0 -- -- 52
2020-10-03 13:00:00 12.1 46 Noroeste 74 Noroeste 0 -- -- 51
2020-10-03 12:00:00 10.2 41 Noroeste 81 Noroeste 0 -- -- 53
2020-10-03 11:00:00 10.8 50 Noroeste 80 Noroeste 0 -- -- 49
2020-10-03 10:00:00 9.4 47 Oeste 70 Noroeste 0 -- -- 56
2020-10-03 09:00:00 8.5 48 Noroeste 68 Oeste 0 -- -- 61
2020-10-03 08:00:00 7.4 33 Oeste 57 Oeste 0 -- -- 64
2020-10-03 07:00:00 7.8 37 Noroeste 55 Noroeste 0 -- -- 61
2020-10-03 06:00:00 8.2 34 Noroeste 59 Noroeste 0 -- -- 58
2020-10-03 05:00:00 7.6 30 Noroeste 54 Noroeste 0 -- -- 60
2020-10-03 04:00:00 7.5 20 Noroeste 48 Oeste 0 -- -- 60
2020-10-03 03:00:00 8 20 Noroeste 44 Noroeste 0 -- -- 57
2020-10-03 02:00:00 8.2 27 Noroeste 63 Noroeste 0 -- -- 56
2020-10-03 01:00:00 8.9 43 Noroeste 63 Noroeste 0 -- -- 49
2020-10-03 00:00:00 8.1 40 Noroeste 63 Oeste 0 -- -- 57
2020-10-02 23:00:00 8.3 38 Noroeste 62 Noroeste 0 -- -- 60
2020-10-02 22:00:00 8.9 38 Noroeste 68 Oeste 0 -- -- 58
2020-10-02 21:00:00 8.8 35 Noroeste 64 Noroeste 0 -- -- 65
2020-10-02 20:00:00 8.9 40 Noroeste 60 Noroeste 0 -- -- 70
2020-10-02 19:00:00 8.6 31 Noroeste 61 Noroeste 0 -- -- 74
2020-10-02 18:00:00 8 35 Noroeste 58 Noroeste 0.2 -- -- 77
2020-10-02 17:00:00 8.3 33 Noroeste 68 Noroeste 0.6 -- -- 73
2020-10-02 16:00:00 8.5 45 Noroeste 85 Noroeste 1 -- -- 78
2020-10-02 15:00:00 11 45 Noroeste 79 Noroeste 0.4 -- -- 81
2020-10-02 14:00:00 12.7 22 Oeste 55 Oeste 1.8 -- -- 78
2020-10-02 13:00:00 14.7 24 Oeste 43 Oeste 0.2 -- -- 82
2020-10-02 12:00:00 14.6 19 Oeste 35 Sudoeste 0.8 -- -- 84
2020-10-02 11:00:00 14.6 11 Oeste 28 Oeste 1.2 -- -- 84
2020-10-02 10:00:00 14.8 9 Oeste 24 Oeste 1.2 -- -- 85
2020-10-02 09:00:00 15.1 12 Oeste 24 Oeste 0.8 -- -- 85
2020-10-02 08:00:00 15.1 10 Oeste 26 Oeste 0 -- -- 84
2020-10-02 07:00:00 14.2 2 Oeste 17 Noroeste 0 -- -- 88
2020-10-02 06:00:00 14.1 9 Noroeste 14 Noroeste 0 -- -- 89
2020-10-02 05:00:00 13.5 5 Noroeste 10 Noroeste 0 -- -- 88
2020-10-02 04:00:00 14 2 Oeste 8 Noroeste 0 -- -- 88
2020-10-02 03:00:00 14.5 2 Noroeste 8 Sudeste 0 -- -- 88
2020-10-02 02:00:00 14.9 3 Sudeste 12 Sudeste 0 -- -- 87
2020-10-02 01:00:00 15.3 3 Este 9 Sudeste 0 -- -- 87
2020-10-02 00:00:00 15.5 5 Sudeste 11 Sudeste 0 -- -- 86
2020-10-01 23:00:00 15.8 7 Sudeste 13 Sudeste 0 -- -- 85
2020-10-01 22:00:00 16.1 9 Sudeste 14 Sudeste 0 -- -- 83
2020-10-01 21:00:00 16.1 8 Este 22 Sudeste 0 -- -- 80
2020-10-01 20:00:00 17.2 3 Oeste 15 Noroeste 0 -- -- 55
2020-10-01 19:00:00 20.4 9 Noroeste 28 Noroeste 0 -- -- 43
2020-10-01 18:00:00 20.9 16 Noroeste 26 Noroeste 0 -- -- 39
2020-10-01 17:00:00 21.9 15 Noroeste 33 Noroeste 0 -- -- 35
2020-10-01 16:00:00 23.4 20 Noroeste 32 Noroeste 0 -- -- 32
2020-10-01 15:00:00 22.6 19 Noroeste 37 Oeste 0 -- -- 34
2020-10-01 14:00:00 22.4 22 Oeste 32 Noroeste 0 -- -- 36
2020-10-01 13:00:00 21.5 19 Noroeste 40 Oeste 0 -- -- 35
2020-10-01 12:00:00 20.6 22 Oeste 39 Oeste 0 -- -- 42
2020-10-01 11:00:00 19 14 Sudoeste 25 Oeste 0 -- -- 59
2020-10-01 10:00:00 17 17 Oeste 30 Oeste 0 -- -- 77
2020-10-01 09:00:00 15.9 8 Oeste 17 Oeste 0 -- -- 83
2020-10-01 08:00:00 15.8 10 Oeste 22 Oeste 0 -- -- 83
2020-10-01 07:00:00 15.7 8 Oeste 18 Oeste 0 -- -- 83
2020-10-01 06:00:00 15.6 5 Oeste 15 Oeste 0 -- -- 82
2020-10-01 05:00:00 15.6 14 Oeste 23 Oeste 0 -- -- 83
2020-10-01 04:00:00 15 7 Oeste 18 Noroeste 0 -- -- 84
2020-10-01 03:00:00 14.8 7 Noroeste 17 Oeste 0 -- -- 86
2020-10-01 02:00:00 14.8 10 Noroeste 17 Noroeste 0 -- -- 86
2020-10-01 01:00:00 13.8 10 Noroeste 17 Noroeste 0 -- -- 89
2020-10-01 00:00:00 12.8 9 Noroeste 14 Noroeste 0 -- -- 88